createdAt,value
2024-01-15T00:01:29.958Z,-5.88
2024-01-15T00:04:01.523Z,-5.78
2024-01-15T00:06:34.243Z,-5.69
2024-01-15T00:09:05.310Z,-5.60
2024-01-15T00:11:34.694Z,-5.49
2024-01-15T00:14:05.629Z,-5.51
2024-01-15T00:16:36.561Z,-5.60
2024-01-15T00:19:07.685Z,-5.65
2024-01-15T00:21:38.816Z,-5.69
2024-01-15T00:24:08.288Z,-5.73
2024-01-15T00:26:39.227Z,-5.79
2024-01-15T00:29:10.527Z,-5.84
2024-01-15T00:31:41.725Z,-5.87
2024-01-15T00:34:12.784Z,-5.85
2024-01-15T00:36:43.872Z,-5.87
2024-01-15T00:39:15.022Z,-5.89
2024-01-15T00:41:45.987Z,-5.91
2024-01-15T00:44:17.402Z,-5.92
2024-01-15T00:46:49.282Z,-5.93
2024-01-15T00:49:20.476Z,-6.00
2024-01-15T00:51:51.698Z,-6.06
2024-01-15T00:54:22.680Z,-6.10
2024-01-15T00:56:53.670Z,-6.14
2024-01-15T00:59:25.044Z,-6.18
2024-01-15T01:01:55.940Z,-6.21
2024-01-15T01:04:26.985Z,-6.17
2024-01-15T01:06:56.339Z,-6.10
2024-01-15T01:09:30.411Z,-6.03
2024-01-15T01:12:01.480Z,-5.92
2024-01-15T01:14:30.801Z,-5.86
2024-01-15T01:17:01.747Z,-5.77
2024-01-15T01:19:32.922Z,-5.68
2024-01-15T01:22:03.985Z,-5.58
2024-01-15T01:24:35.921Z,-5.53
2024-01-15T01:27:07.066Z,-5.58
2024-01-15T01:29:38.032Z,-5.64
2024-01-15T01:32:09.363Z,-5.65
2024-01-15T01:34:44.680Z,-5.56
2024-01-15T01:37:16.759Z,-5.52
2024-01-15T01:39:48.298Z,-5.48
2024-01-15T01:42:19.607Z,-5.46
2024-01-15T01:44:50.545Z,-5.49
2024-01-15T01:47:21.844Z,-5.60
2024-01-15T01:49:52.878Z,-5.76
2024-01-15T01:52:24.414Z,-5.86
2024-01-15T01:54:56.513Z,-5.92
2024-01-15T01:57:27.831Z,-5.90
2024-01-15T02:00:00.279Z,-5.91
2024-01-15T02:02:31.361Z,-5.90
2024-01-15T02:05:00.727Z,-5.91
2024-01-15T02:07:31.792Z,-5.89
2024-01-15T02:10:03.100Z,-5.90
2024-01-15T02:12:34.522Z,-5.89
2024-01-15T02:15:06.227Z,-5.88
2024-01-15T02:17:37.169Z,-5.87
2024-01-15T02:20:10.278Z,-5.87
2024-01-15T02:22:41.320Z,-5.89
2024-01-15T02:25:10.667Z,-5.88
2024-01-15T02:27:41.761Z,-5.83
2024-01-15T02:30:12.509Z,-5.75
2024-01-15T02:32:43.585Z,-5.69
2024-01-15T02:35:14.779Z,-5.62
2024-01-15T02:37:44.139Z,-5.56
2024-01-15T02:40:15.799Z,-5.55
2024-01-15T02:42:46.735Z,-5.52
2024-01-15T02:45:17.896Z,-5.40
2024-01-15T02:47:48.885Z,-5.23
2024-01-15T02:50:20.397Z,-5.07
2024-01-15T02:52:51.575Z,-4.91
2024-01-15T02:55:22.633Z,-4.87
2024-01-15T02:57:51.880Z,-4.89
2024-01-15T03:00:23.072Z,-4.90
2024-01-15T03:02:54.713Z,-4.84
2024-01-15T03:05:25.685Z,-4.87
2024-01-15T03:07:54.921Z,-4.86
2024-01-15T03:10:25.904Z,-4.87
2024-01-15T03:12:55.259Z,-4.88
2024-01-15T03:15:26.340Z,-4.96
2024-01-15T03:17:55.651Z,-5.05
2024-01-15T03:20:26.652Z,-5.11
2024-01-15T03:22:55.963Z,-5.13
2024-01-15T03:25:26.944Z,-5.15
2024-01-15T03:27:57.982Z,-5.16
2024-01-15T03:30:27.354Z,-5.21
2024-01-15T03:32:58.475Z,-5.28
2024-01-15T03:35:30.630Z,-5.32
2024-01-15T03:38:01.581Z,-5.34
2024-01-15T03:40:32.639Z,-5.37
2024-01-15T03:43:03.641Z,-5.40
2024-01-15T03:45:34.609Z,-5.42
2024-01-15T03:48:03.990Z,-5.42
2024-01-15T03:50:35.059Z,-5.42
2024-01-15T03:53:04.362Z,-5.43
2024-01-15T03:55:35.299Z,-5.45
2024-01-15T03:58:06.307Z,-5.46
2024-01-15T04:00:35.659Z,-5.42
2024-01-15T04:03:06.813Z,-5.37
2024-01-15T04:05:36.102Z,-5.28
2024-01-15T04:08:07.655Z,-5.18
2024-01-15T04:10:38.589Z,-5.09
2024-01-15T04:13:09.493Z,-4.98
2024-01-15T04:15:40.435Z,-4.87
2024-01-15T04:18:11.478Z,-4.77
2024-01-15T04:20:40.775Z,-4.70
2024-01-15T04:23:11.750Z,-4.65
2024-01-15T04:25:44.020Z,-4.60
2024-01-15T04:28:15.000Z,-4.54
2024-01-15T04:30:46.085Z,-4.51
2024-01-15T04:33:17.134Z,-4.47
2024-01-15T04:35:48.133Z,-4.43
2024-01-15T04:38:19.071Z,-4.43
2024-01-15T04:40:50.056Z,-4.46
2024-01-15T04:43:19.294Z,-4.51
2024-01-15T04:45:50.303Z,-4.60
2024-01-15T04:48:19.632Z,-4.66
2024-01-15T04:50:50.631Z,-4.68
2024-01-15T04:53:19.868Z,-4.69
2024-01-15T04:55:50.808Z,-4.70
2024-01-15T04:58:21.797Z,-4.71
2024-01-15T05:00:52.914Z,-4.70
2024-01-15T05:03:24.385Z,-4.70
2024-01-15T05:05:55.779Z,-4.66
2024-01-15T05:08:26.715Z,-4.59
2024-01-15T05:10:57.685Z,-4.50
2024-01-15T05:13:29.197Z,-4.43
2024-01-15T05:16:00.391Z,-4.35
2024-01-15T05:18:31.565Z,-4.27
2024-01-15T05:21:02.725Z,-4.23
2024-01-15T05:23:33.271Z,-4.19
2024-01-15T05:26:04.264Z,-4.16
2024-01-15T05:28:35.181Z,-4.18
2024-01-15T05:31:06.450Z,-4.18
2024-01-15T05:33:37.549Z,-4.18
2024-01-15T05:36:09.818Z,-4.16
2024-01-15T05:38:40.971Z,-4.19
2024-01-15T05:41:11.924Z,-4.24
2024-01-15T05:43:42.839Z,-4.28
2024-01-15T05:46:12.254Z,-4.33
2024-01-15T05:48:43.358Z,-4.39
2024-01-15T05:51:14.576Z,-4.44
2024-01-15T05:53:45.348Z,-4.50
2024-01-15T05:56:16.389Z,-4.57
2024-01-15T05:58:45.645Z,-4.63
2024-01-15T06:01:16.712Z,-4.68
2024-01-15T06:03:47.757Z,-4.73
2024-01-15T06:06:17.216Z,-4.78
2024-01-15T06:08:48.241Z,-4.82
2024-01-15T06:11:19.200Z,-4.85
2024-01-15T06:13:50.107Z,-4.85
2024-01-15T06:16:21.864Z,-4.84
2024-01-15T06:18:52.915Z,-4.78
2024-01-15T06:21:24.528Z,-4.70
2024-01-15T06:23:57.551Z,-4.58
2024-01-15T06:26:28.520Z,-4.45
2024-01-15T06:28:59.455Z,-4.32
2024-01-15T06:31:30.481Z,-4.21
2024-01-15T06:34:02.459Z,-4.14
2024-01-15T06:36:33.474Z,-4.10
2024-01-15T06:39:02.760Z,-4.12
2024-01-15T06:41:33.682Z,-4.12
2024-01-15T06:44:04.704Z,-4.16
2024-01-15T06:46:33.975Z,-4.20
2024-01-15T06:49:05.009Z,-4.23
2024-01-15T06:51:34.422Z,-4.14
2024-01-15T06:54:05.554Z,-4.16
2024-01-15T06:56:36.546Z,-4.23
2024-01-15T06:59:07.460Z,-4.34
2024-01-15T07:01:38.456Z,-4.48
2024-01-15T07:04:07.709Z,-4.54
2024-01-15T07:06:38.931Z,-4.58
2024-01-15T07:09:10.480Z,-4.65
2024-01-15T07:11:46.309Z,-4.68
2024-01-15T07:14:17.246Z,-4.70
2024-01-15T07:16:49.110Z,-4.70
2024-01-15T07:19:20.172Z,-4.63
2024-01-15T07:21:52.768Z,-4.52
2024-01-15T07:24:25.146Z,-4.39
2024-01-15T07:26:56.233Z,-4.24
2024-01-15T07:29:25.552Z,-4.14
2024-01-15T07:31:56.807Z,-4.08
2024-01-15T07:34:28.147Z,-4.05
2024-01-15T07:36:59.352Z,-3.69
2024-01-15T07:39:31.882Z,-3.30
2024-01-15T07:42:02.982Z,-3.25
2024-01-15T07:44:32.225Z,-3.25
2024-01-15T07:47:03.145Z,-3.28
2024-01-15T07:49:34.180Z,-3.26
2024-01-15T07:52:06.408Z,-3.27
2024-01-15T07:54:37.343Z,-3.27
2024-01-15T07:57:07.081Z,-3.22
2024-01-15T07:59:37.062Z,-3.13
2024-01-15T08:02:08.062Z,-3.04
2024-01-15T08:04:38.930Z,-2.97
2024-01-15T08:07:09.997Z,-2.93
2024-01-15T08:09:41.095Z,-2.88
2024-01-15T08:12:12.943Z,-2.82
2024-01-15T08:14:43.918Z,-2.70
2024-01-15T08:17:13.187Z,-2.57
2024-01-15T08:19:44.656Z,-2.45
2024-01-15T08:22:15.869Z,-2.34
2024-01-15T08:24:46.828Z,-2.28
2024-01-15T08:27:17.911Z,-2.25
2024-01-15T08:29:48.852Z,-2.18
2024-01-15T08:32:18.104Z,-2.15
2024-01-15T08:34:50.651Z,-2.07
2024-01-15T08:37:21.753Z,-2.00
2024-01-15T08:39:52.736Z,-1.93
2024-01-15T08:42:23.741Z,-1.79
2024-01-15T08:44:54.700Z,-1.69
2024-01-15T08:47:23.986Z,-1.54
2024-01-15T08:49:55.473Z,-1.36
2024-01-15T08:52:26.444Z,-1.15
2024-01-15T08:54:57.828Z,-0.93
2024-01-15T08:57:28.960Z,-0.74
2024-01-15T09:00:00.338Z,-0.54
2024-01-15T09:02:31.304Z,-0.36
2024-01-15T09:05:02.306Z,-0.17
2024-01-15T09:07:33.421Z,0.03
2024-01-15T09:10:04.484Z,0.24
2024-01-15T09:12:35.438Z,0.51
2024-01-15T09:15:07.324Z,0.82
2024-01-15T09:17:38.469Z,1.13
2024-01-15T09:20:11.542Z,1.48
2024-01-15T09:22:43.868Z,1.72
2024-01-15T09:25:15.178Z,1.95
2024-01-15T09:27:46.241Z,2.21
2024-01-15T09:30:18.414Z,2.53
2024-01-15T09:32:49.915Z,2.82
2024-01-15T09:35:23.674Z,3.13
2024-01-15T09:37:56.079Z,3.35
2024-01-15T09:40:33.330Z,3.55
2024-01-15T09:43:05.127Z,3.70
2024-01-15T09:45:36.465Z,3.96
2024-01-15T09:48:09.174Z,4.19
2024-01-15T09:50:40.126Z,4.42
2024-01-15T09:53:11.224Z,4.63
2024-01-15T09:55:42.252Z,4.85
2024-01-15T09:58:14.211Z,5.06
2024-01-15T10:00:46.811Z,5.23
2024-01-15T10:03:17.986Z,5.40
2024-01-15T10:05:49.199Z,5.46
2024-01-15T10:08:20.695Z,5.51
2024-01-15T10:10:51.850Z,5.58
2024-01-15T10:13:23.672Z,5.69
2024-01-15T10:15:55.459Z,5.86
2024-01-15T10:18:26.686Z,6.05
2024-01-15T10:20:59.156Z,6.23
2024-01-15T10:23:30.947Z,6.44
2024-01-15T10:26:02.312Z,6.68
2024-01-15T10:28:33.733Z,6.85
2024-01-15T10:31:05.174Z,6.98
2024-01-15T10:33:36.361Z,7.11
2024-01-15T10:36:13.603Z,7.25
2024-01-15T10:38:46.111Z,7.43
2024-01-15T10:41:17.266Z,7.56
2024-01-15T10:43:48.264Z,7.67
2024-01-15T10:46:19.640Z,7.75
2024-01-15T10:48:50.709Z,7.83
2024-01-15T10:51:22.050Z,7.95
2024-01-15T10:53:53.369Z,8.02
2024-01-15T10:56:26.222Z,8.10
2024-01-15T10:59:00.783Z,8.20
2024-01-15T11:01:32.948Z,8.34
2024-01-15T11:04:04.473Z,8.50
2024-01-15T11:06:45.860Z,8.55
2024-01-15T11:09:18.946Z,8.57
2024-01-15T11:11:53.675Z,8.60
2024-01-15T11:14:45.092Z,8.62
2024-01-15T11:17:17.364Z,8.58
2024-01-15T11:19:52.316Z,8.52
2024-01-15T11:22:53.198Z,8.46
2024-01-15T11:25:24.223Z,8.49
2024-01-15T11:27:56.886Z,8.56
2024-01-15T11:30:30.071Z,8.64
2024-01-15T11:33:01.424Z,8.74
2024-01-15T11:35:52.266Z,8.76
2024-01-15T11:38:32.652Z,8.72
2024-01-15T11:41:15.651Z,8.68
2024-01-15T11:43:46.569Z,8.60
2024-01-15T11:46:20.944Z,8.53
2024-01-15T11:49:03.990Z,8.49
2024-01-15T11:51:36.071Z,8.48
2024-01-15T11:54:12.959Z,8.51
2024-01-15T11:56:44.043Z,8.57
2024-01-15T11:59:15.359Z,8.58
2024-01-15T12:01:46.619Z,8.50
2024-01-15T12:04:21.078Z,8.38
2024-01-15T12:06:52.190Z,8.30
2024-01-15T12:09:24.706Z,8.26
2024-01-15T12:12:07.003Z,8.26
2024-01-15T12:14:37.988Z,8.30
2024-01-15T12:17:09.298Z,8.29
2024-01-15T12:19:40.333Z,8.26
2024-01-15T12:22:11.664Z,8.25
2024-01-15T12:24:42.670Z,8.26
2024-01-15T12:27:13.659Z,8.26
2024-01-15T12:29:45.410Z,8.27
2024-01-15T12:32:17.637Z,8.30
2024-01-15T12:34:48.567Z,8.30
2024-01-15T12:37:21.918Z,8.30
2024-01-15T12:39:56.032Z,8.30
2024-01-15T12:42:27.499Z,8.31
2024-01-15T12:44:59.437Z,8.35
2024-01-15T12:47:30.542Z,8.40
2024-01-15T12:50:10.032Z,8.40
2024-01-15T12:52:48.190Z,8.36
2024-01-15T12:55:19.666Z,8.38
2024-01-15T12:57:53.859Z,8.46
2024-01-15T13:00:27.021Z,8.47
2024-01-15T13:02:59.235Z,8.38
2024-01-15T13:05:31.712Z,8.29
2024-01-15T13:08:02.845Z,8.22
2024-01-15T13:10:33.960Z,8.19
2024-01-15T13:13:06.151Z,8.16
2024-01-15T13:15:37.533Z,8.12
2024-01-15T13:18:10.034Z,8.13
2024-01-15T13:20:41.352Z,8.27
2024-01-15T13:23:12.823Z,8.31
2024-01-15T13:25:43.776Z,8.32
2024-01-15T13:28:14.723Z,8.38
2024-01-15T13:30:45.995Z,8.33
2024-01-15T13:33:17.306Z,8.17
2024-01-15T13:35:51.353Z,8.02
2024-01-15T13:38:22.266Z,7.83
2024-01-15T13:40:53.309Z,7.65
2024-01-15T13:43:25.269Z,7.48
2024-01-15T13:45:56.498Z,7.30
2024-01-15T13:48:27.546Z,7.12
2024-01-15T13:50:58.617Z,6.92
2024-01-15T13:53:30.946Z,6.76
2024-01-15T13:56:02.110Z,6.61
2024-01-15T13:58:33.985Z,6.44
2024-01-15T14:01:05.646Z,6.27
2024-01-15T14:03:36.766Z,6.15
2024-01-15T14:06:10.107Z,6.03
2024-01-15T14:08:41.152Z,5.91
2024-01-15T14:11:12.540Z,5.81
2024-01-15T14:13:43.808Z,5.70
2024-01-15T14:16:14.769Z,5.62
2024-01-15T14:18:45.820Z,5.53
2024-01-15T14:21:16.955Z,5.43
2024-01-15T14:23:47.962Z,5.32
2024-01-15T14:26:18.925Z,5.22
2024-01-15T14:28:51.994Z,5.12
2024-01-15T14:31:26.236Z,4.99
2024-01-15T14:33:57.617Z,4.86
2024-01-15T14:36:28.557Z,4.74
2024-01-15T14:38:59.602Z,4.65
2024-01-15T14:41:30.636Z,4.55
2024-01-15T14:44:01.541Z,4.46
2024-01-15T14:46:32.832Z,4.36
2024-01-15T14:49:03.879Z,4.27
2024-01-15T14:51:34.878Z,4.20
2024-01-15T14:54:06.211Z,4.12
2024-01-15T14:56:37.131Z,4.05
2024-01-15T14:59:08.119Z,3.97
2024-01-15T15:01:39.224Z,3.92
2024-01-15T15:04:11.700Z,3.87
2024-01-15T15:06:43.102Z,3.81
2024-01-15T15:09:14.223Z,3.74
2024-01-15T15:11:45.510Z,3.69
2024-01-15T15:14:16.545Z,3.63
2024-01-15T15:16:47.967Z,3.57
2024-01-15T15:19:20.429Z,3.51
2024-01-15T15:21:51.621Z,3.43
2024-01-15T15:24:22.591Z,3.35
2024-01-15T15:26:55.570Z,3.27
2024-01-15T15:29:26.734Z,3.21
2024-01-15T15:31:57.634Z,3.17
2024-01-15T15:34:28.592Z,3.10
2024-01-15T15:36:59.796Z,3.05
2024-01-15T15:39:32.208Z,3.01
2024-01-15T15:42:03.759Z,2.98
2024-01-15T15:44:34.879Z,2.92
2024-01-15T15:47:05.985Z,2.87
2024-01-15T15:49:37.501Z,2.82
2024-01-15T15:52:09.129Z,2.76
2024-01-15T15:54:40.114Z,2.67
2024-01-15T15:57:11.140Z,2.61
2024-01-15T15:59:42.144Z,2.57
2024-01-15T16:02:13.162Z,2.52
2024-01-15T16:04:44.072Z,2.48
2024-01-15T16:07:15.744Z,2.44
2024-01-15T16:09:46.710Z,2.39
2024-01-15T16:12:17.665Z,2.34
2024-01-15T16:14:48.771Z,2.29
2024-01-15T16:23:15.295Z,2.26
2024-01-15T16:23:29.403Z,2.23
2024-01-15T16:23:51.754Z,2.14
2024-01-15T16:25:54.549Z,2.14
2024-01-15T16:28:25.824Z,2.12
2024-01-15T16:31:02.213Z,2.09
2024-01-15T16:33:35.890Z,2.01
2024-01-15T16:36:07.190Z,2.01
2024-01-15T16:38:38.300Z,1.93
2024-01-15T16:41:09.564Z,1.92
2024-01-15T16:43:40.414Z,1.89
2024-01-15T16:46:12.290Z,1.88
2024-01-15T16:48:43.220Z,1.87
2024-01-15T16:51:15.450Z,1.85
2024-01-15T16:53:46.355Z,1.81
2024-01-15T16:56:17.404Z,1.77
2024-01-15T16:58:48.327Z,1.75
2024-01-15T17:01:19.230Z,1.73
2024-01-15T17:03:50.580Z,1.71
2024-01-15T17:06:21.525Z,1.69
2024-01-15T17:08:52.711Z,1.69
2024-01-15T17:11:23.727Z,1.68
2024-01-15T17:13:54.855Z,1.66
2024-01-15T17:16:25.731Z,1.65
2024-01-15T17:18:56.663Z,1.64
2024-01-15T17:21:27.610Z,1.63
2024-01-15T17:23:59.200Z,1.60
2024-01-15T17:26:30.184Z,1.55
2024-01-15T17:29:01.343Z,1.51
2024-01-15T17:31:32.262Z,1.54
2024-01-15T17:34:03.618Z,1.60
2024-01-15T17:36:34.556Z,1.66
2024-01-15T17:39:07.546Z,1.71
2024-01-15T17:41:38.618Z,1.72
2024-01-15T17:44:09.554Z,1.72
2024-01-15T17:46:40.543Z,1.74
2024-01-15T17:49:11.505Z,1.70
2024-01-15T17:51:42.451Z,1.67
2024-01-15T17:54:13.363Z,1.63
2024-01-15T17:56:44.643Z,1.56
2024-01-15T17:59:15.694Z,1.52
2024-01-15T18:01:48.378Z,1.51
2024-01-15T18:04:20.910Z,1.50
2024-01-15T18:06:53.091Z,1.47
2024-01-15T18:09:23.986Z,1.43
2024-01-15T18:12:00.648Z,1.39
2024-01-15T18:14:31.752Z,1.35
2024-01-15T18:17:02.766Z,1.30
2024-01-15T18:19:33.744Z,1.25
2024-01-15T18:22:05.977Z,1.20
2024-01-15T18:24:37.515Z,1.15
2024-01-15T18:27:09.620Z,1.13
2024-01-15T18:29:40.834Z,1.08
2024-01-15T18:32:12.420Z,1.02
2024-01-15T18:34:44.203Z,0.94
2024-01-15T18:37:15.746Z,0.88
2024-01-15T18:39:47.950Z,0.84
2024-01-15T18:42:19.195Z,0.79
2024-01-15T18:44:50.531Z,0.74
2024-01-15T18:47:21.953Z,0.71
2024-01-15T18:49:53.069Z,0.67
2024-01-15T18:52:24.030Z,0.62
2024-01-15T18:54:55.047Z,0.59
2024-01-15T18:57:26.028Z,0.56
2024-01-15T18:59:56.942Z,0.54
2024-01-15T19:02:30.540Z,0.53
2024-01-15T19:05:01.665Z,0.58
2024-01-15T19:07:34.099Z,0.62
2024-01-15T19:10:06.305Z,0.67
2024-01-15T19:12:37.303Z,1.12
2024-01-15T19:15:10.267Z,1.34
2024-01-15T19:17:41.270Z,1.30
2024-01-15T19:20:14.936Z,1.19
2024-01-15T19:22:46.028Z,1.02
2024-01-15T19:25:17.075Z,0.89
2024-01-15T19:27:48.173Z,0.78
2024-01-15T19:30:19.788Z,0.67
2024-01-15T19:32:50.852Z,0.57
2024-01-15T19:35:21.882Z,0.44
2024-01-15T19:37:52.813Z,0.36
2024-01-15T19:40:23.913Z,0.28
2024-01-15T19:42:54.802Z,0.20
2024-01-15T19:45:25.700Z,0.14
2024-01-15T19:47:57.131Z,0.05
2024-01-15T19:50:28.354Z,-0.00
2024-01-15T19:52:59.295Z,-0.07
2024-01-15T19:55:30.290Z,-0.12
2024-01-15T19:58:01.230Z,-0.18
2024-01-15T20:00:32.218Z,-0.24
2024-01-15T20:03:03.796Z,-0.29
2024-01-15T20:05:34.849Z,-0.35
2024-01-15T20:08:06.306Z,-0.40
2024-01-15T20:10:39.593Z,-0.43
2024-01-15T20:13:10.486Z,-0.52
2024-01-15T20:15:41.578Z,-0.62
2024-01-15T20:18:12.698Z,-0.66
2024-01-15T20:20:43.950Z,-0.62
2024-01-15T20:23:14.931Z,-0.59
2024-01-15T20:25:45.875Z,-0.54
2024-01-15T20:28:16.760Z,-0.47
2024-01-15T20:30:47.912Z,-0.49
2024-01-15T20:33:20.052Z,-0.58
2024-01-15T20:35:52.179Z,-0.64
2024-01-15T20:38:23.204Z,-0.74
2024-01-15T20:40:54.074Z,-0.81
2024-01-15T20:43:23.343Z,-0.89
2024-01-15T20:45:55.986Z,-0.98
2024-01-15T20:48:28.715Z,-1.06
2024-01-15T20:51:00.173Z,-1.17
2024-01-15T20:53:32.998Z,-1.23
2024-01-15T20:56:04.123Z,-1.27
2024-01-15T20:58:36.075Z,-1.30
2024-01-15T21:01:09.923Z,-1.34
2024-01-15T21:03:40.883Z,-1.38
2024-01-15T21:06:12.260Z,-1.43
2024-01-15T21:08:44.564Z,-1.49
2024-01-15T21:11:15.996Z,-1.53
2024-01-15T21:13:46.939Z,-1.60
2024-01-15T21:16:16.243Z,-1.63
2024-01-15T21:18:48.322Z,-1.71
2024-01-15T21:21:19.978Z,-1.77
2024-01-15T21:23:50.912Z,-1.84
2024-01-15T21:26:21.884Z,-1.85
2024-01-15T21:28:52.852Z,-1.80
2024-01-15T21:31:22.164Z,-1.74
2024-01-15T21:33:53.137Z,-1.66
2024-01-15T21:36:24.091Z,-1.51
2024-01-15T21:38:55.002Z,-1.31
2024-01-15T21:41:26.060Z,-1.14
2024-01-15T21:43:57.180Z,-0.98
2024-01-15T21:46:28.443Z,-0.84
2024-01-15T21:48:59.868Z,-0.72
2024-01-15T21:51:30.841Z,-0.61
2024-01-15T21:54:02.945Z,-0.51
2024-01-15T21:56:34.138Z,-0.42
2024-01-15T21:59:06.409Z,-0.36
2024-01-15T22:01:37.404Z,-0.28
2024-01-15T22:04:08.526Z,-0.22
2024-01-15T22:06:39.643Z,-0.19
2024-01-15T22:09:10.677Z,-0.16
2024-01-15T22:11:44.675Z,-0.13
2024-01-15T22:14:16.543Z,-0.11
2024-01-15T22:16:47.936Z,-0.10
2024-01-15T22:19:19.114Z,-0.07
2024-01-15T22:21:50.742Z,-0.07
2024-01-15T22:24:21.594Z,-0.05
2024-01-15T22:26:51.118Z,-0.03
2024-01-15T22:29:20.442Z,-0.03
2024-01-15T22:31:51.454Z,0.00
2024-01-15T22:34:22.437Z,0.01
2024-01-15T22:36:53.770Z,0.02
2024-01-15T22:39:24.711Z,0.02
2024-01-15T22:41:55.623Z,0.03
2024-01-15T22:44:26.671Z,0.02
2024-01-15T22:46:57.713Z,0.01
2024-01-15T22:49:28.674Z,0.00
2024-01-15T22:51:59.571Z,-0.01
2024-01-15T22:54:30.520Z,-0.01
2024-01-15T22:57:01.404Z,-0.00
2024-01-15T22:59:32.341Z,0.01
2024-01-15T23:02:03.387Z,0.02
2024-01-15T23:04:34.477Z,0.03
2024-01-15T23:07:06.366Z,0.03
2024-01-15T23:09:37.653Z,0.04
2024-01-15T23:12:10.009Z,0.08
2024-01-15T23:14:41.032Z,0.10
2024-01-15T23:17:12.191Z,0.12
2024-01-15T23:19:43.136Z,0.13
2024-01-15T23:22:14.079Z,0.13
2024-01-15T23:24:45.108Z,0.14
2024-01-15T23:27:16.292Z,0.13
2024-01-15T23:29:47.192Z,0.15
2024-01-15T23:32:18.181Z,0.17
2024-01-15T23:34:49.627Z,0.18
2024-01-15T23:37:20.621Z,0.20
2024-01-15T23:39:51.633Z,0.22
2024-01-15T23:42:22.924Z,0.21
2024-01-15T23:44:53.804Z,0.21
2024-01-15T23:47:24.873Z,0.23
2024-01-15T23:49:56.155Z,0.23
2024-01-15T23:52:27.248Z,0.22
2024-01-15T23:54:58.127Z,0.21
2024-01-15T23:57:29.050Z,0.21
2024-01-15T23:59:59.972Z,0.24
